createdAt,value
2023-03-22T00:00:30.302Z,5.38
2023-03-22T00:02:59.681Z,5.03
2023-03-22T00:05:27.610Z,5.68
2023-03-22T00:07:58.459Z,4.80
2023-03-22T00:10:27.605Z,5.28
2023-03-22T00:12:56.371Z,5.10
2023-03-22T00:15:26.884Z,5.32
2023-03-22T00:17:55.594Z,5.38
2023-03-22T00:20:25.014Z,5.22
2023-03-22T00:22:53.953Z,4.70
2023-03-22T00:25:21.861Z,5.57
2023-03-22T00:27:50.233Z,5.10
2023-03-22T00:30:19.183Z,5.53
2023-03-22T00:32:47.205Z,5.03
2023-03-22T00:35:15.333Z,4.57
2023-03-22T00:37:45.771Z,4.90
2023-03-22T00:42:44.570Z,4.70
2023-03-22T00:45:14.025Z,4.93
2023-03-22T00:47:42.189Z,5.47
2023-03-22T00:50:11.178Z,4.57
2023-03-22T00:52:40.227Z,4.90
2023-03-22T00:55:10.136Z,4.68
2023-03-22T00:57:38.617Z,4.75
2023-03-22T01:00:13.628Z,5.28
2023-03-22T01:02:42.604Z,4.70
2023-03-22T01:05:16.589Z,4.90
2023-03-22T01:07:45.089Z,4.57
2023-03-22T01:10:14.653Z,4.22
2023-03-22T01:15:12.351Z,4.57
2023-03-22T01:17:41.127Z,4.57
2023-03-22T01:20:11.747Z,4.75
2023-03-22T01:22:40.589Z,5.07
2023-03-22T01:25:09.483Z,4.70
2023-03-22T01:27:40.213Z,4.80
2023-03-22T01:32:37.889Z,4.50
2023-03-22T01:35:06.948Z,4.45
2023-03-22T01:37:35.708Z,5.00
2023-03-22T01:40:04.342Z,5.13
2023-03-22T01:42:33.933Z,4.72
2023-03-22T01:45:41.213Z,4.68
2023-03-22T01:48:17.500Z,4.60
2023-03-22T01:50:50.700Z,5.07
2023-03-22T01:53:24.077Z,5.00
2023-03-22T01:55:56.252Z,4.88
2023-03-22T01:58:35.388Z,4.95
2023-03-22T02:01:08.653Z,4.97
2023-03-22T02:03:50.076Z,5.82
2023-03-22T02:06:18.524Z,5.40
2023-03-22T02:08:53.543Z,4.35
2023-03-22T02:11:30.738Z,4.40
2023-03-22T02:14:27.357Z,6.00
2023-03-22T02:17:15.491Z,4.90
2023-03-22T02:20:20.550Z,5.05
2023-03-22T02:23:07.314Z,5.20
2023-03-22T02:26:05.454Z,4.93
2023-03-22T02:28:43.756Z,4.88
2023-03-22T02:31:38.835Z,4.55
2023-03-22T02:34:38.880Z,4.93
2023-03-22T02:37:52.392Z,4.97
2023-03-22T02:40:33.052Z,5.03
2023-03-22T02:43:15.181Z,5.03
2023-03-22T02:45:48.245Z,5.22
2023-03-22T02:48:20.415Z,5.68
2023-03-22T02:50:54.578Z,4.90
2023-03-22T02:53:31.284Z,4.43
2023-03-22T02:56:03.332Z,5.10
2023-03-22T02:58:37.477Z,5.90
2023-03-22T03:01:09.781Z,5.55
2023-03-22T03:03:40.997Z,4.80
2023-03-22T03:06:13.617Z,4.78
2023-03-22T03:08:43.836Z,4.57
2023-03-22T03:11:14.533Z,5.00
2023-03-22T03:13:48.770Z,5.18
2023-03-22T03:16:18.888Z,5.38
2023-03-22T03:18:56.005Z,4.75
2023-03-22T03:21:36.107Z,5.22
2023-03-22T03:24:21.143Z,4.88
2023-03-22T03:26:57.407Z,5.95
2023-03-22T03:29:36.649Z,5.13
2023-03-22T03:32:10.727Z,5.72
2023-03-22T03:34:46.179Z,5.75
2023-03-22T03:37:18.966Z,5.38
2023-03-22T03:39:58.250Z,5.43
2023-03-22T03:42:31.528Z,5.63
2023-03-22T03:45:03.499Z,5.60
2023-03-22T03:47:32.968Z,5.32
2023-03-22T03:50:01.332Z,5.57
2023-03-22T03:52:31.884Z,5.70
2023-03-22T03:55:00.909Z,5.75
2023-03-22T03:57:39.072Z,6.18
2023-03-22T04:00:10.192Z,5.50
2023-03-22T04:03:07.436Z,5.65
2023-03-22T04:06:03.897Z,5.90
2023-03-22T04:08:38.355Z,6.00
2023-03-22T04:11:08.075Z,6.30
2023-03-22T04:13:39.433Z,6.95
2023-03-22T04:16:15.394Z,6.25
2023-03-22T04:18:44.614Z,6.18
2023-03-22T04:21:16.546Z,6.45
2023-03-22T04:23:52.781Z,5.90
2023-03-22T04:26:22.742Z,6.53
2023-03-22T04:29:09.573Z,6.30
2023-03-22T04:31:45.070Z,6.63
2023-03-22T04:34:33.038Z,5.85
2023-03-22T04:37:12.563Z,6.38
2023-03-22T04:40:02.493Z,7.47
2023-03-22T04:42:52.614Z,6.47
2023-03-22T04:45:32.520Z,6.50
2023-03-22T04:48:08.264Z,7.15
2023-03-22T04:50:42.972Z,6.03
2023-03-22T04:53:13.353Z,6.00
2023-03-22T04:55:42.980Z,7.07
2023-03-22T04:58:11.656Z,5.85
2023-03-22T05:00:43.094Z,6.38
2023-03-22T05:03:13.370Z,7.00
2023-03-22T05:05:53.359Z,6.57
2023-03-22T05:08:25.934Z,5.97
2023-03-22T05:11:22.807Z,6.20
2023-03-22T05:14:09.819Z,6.03
2023-03-22T05:16:41.525Z,6.88
2023-03-22T05:19:14.180Z,6.15
2023-03-22T05:21:58.803Z,6.10
2023-03-22T05:24:49.436Z,6.53
2023-03-22T05:27:31.937Z,6.78
2023-03-22T05:30:18.400Z,5.85
2023-03-22T05:33:00.636Z,6.40
2023-03-22T05:35:29.430Z,6.55
2023-03-22T05:37:58.973Z,6.55
2023-03-22T05:40:31.963Z,5.68
2023-03-22T05:43:02.295Z,7.03
2023-03-22T05:45:33.264Z,6.35
2023-03-22T05:48:16.995Z,6.32
2023-03-22T05:50:46.571Z,6.72
2023-03-22T05:53:14.989Z,5.88
2023-03-22T05:56:01.423Z,7.18
2023-03-22T05:58:51.875Z,6.07
2023-03-22T06:01:23.801Z,5.72
2023-03-22T06:04:12.618Z,6.15
2023-03-22T06:06:55.376Z,6.15
2023-03-22T06:09:45.069Z,5.95
2023-03-22T06:12:32.429Z,6.22
2023-03-22T06:15:10.150Z,6.68
2023-03-22T06:20:32.792Z,5.93
2023-03-22T06:23:07.448Z,6.50
2023-03-22T06:25:40.472Z,5.90
2023-03-22T06:28:13.188Z,5.53
2023-03-22T06:30:49.609Z,5.50
2023-03-22T06:33:41.132Z,5.63
2023-03-22T06:36:25.040Z,5.88
2023-03-22T06:39:08.039Z,5.55
2023-03-22T06:41:39.164Z,5.78
2023-03-22T06:44:08.293Z,4.68
2023-03-22T06:46:53.608Z,5.38
2023-03-22T06:49:44.802Z,6.03
2023-03-22T06:52:27.936Z,4.72
2023-03-22T06:54:58.001Z,5.03
2023-03-22T06:57:29.140Z,4.78
2023-03-22T07:00:00.807Z,5.00
2023-03-22T07:02:29.381Z,5.60
2023-03-22T07:05:33.368Z,5.15
2023-03-22T07:08:04.646Z,5.05
2023-03-22T07:10:38.581Z,4.57
2023-03-22T07:13:08.084Z,5.45
2023-03-22T07:15:37.848Z,4.60
2023-03-22T07:18:15.836Z,4.88
2023-03-22T07:20:47.282Z,4.75
2023-03-22T07:23:18.616Z,4.97
2023-03-22T07:25:52.056Z,4.70
2023-03-22T07:28:30.014Z,4.75
2023-03-22T07:31:03.183Z,5.03
2023-03-22T07:33:38.237Z,4.60
2023-03-22T07:36:10.077Z,4.45
2023-03-22T07:38:41.094Z,4.72
2023-03-22T07:41:15.499Z,5.05
2023-03-22T07:44:17.915Z,4.90
2023-03-22T07:47:01.885Z,5.70
2023-03-22T07:49:39.203Z,5.10
2023-03-22T07:52:31.093Z,4.63
2023-03-22T07:55:02.053Z,5.30
2023-03-22T07:57:30.429Z,4.63
2023-03-22T08:00:02.523Z,4.63
2023-03-22T08:02:57.378Z,4.78
2023-03-22T08:05:45.271Z,4.38
2023-03-22T08:08:16.794Z,4.85
2023-03-22T08:10:52.141Z,4.97
2023-03-22T08:13:21.139Z,4.40
2023-03-22T08:15:49.311Z,4.40
2023-03-22T08:18:21.274Z,4.53
2023-03-22T08:20:56.291Z,4.57
2023-03-22T08:23:41.369Z,3.85
2023-03-22T08:26:24.277Z,4.20
2023-03-22T08:28:54.401Z,4.95
2023-03-22T08:31:25.209Z,4.43
2023-03-22T08:33:53.514Z,4.22
2023-03-22T08:36:23.834Z,4.22
2023-03-22T08:39:01.960Z,4.30
2023-03-22T08:41:45.486Z,4.07
2023-03-22T08:44:15.740Z,3.90
2023-03-22T08:46:44.129Z,3.95
2023-03-22T08:49:17.546Z,4.07
2023-03-22T08:51:58.702Z,3.42
2023-03-22T08:54:43.606Z,3.88
2023-03-22T08:57:34.096Z,3.58
2023-03-22T09:00:33.978Z,3.38
2023-03-22T09:05:45.624Z,2.95
2023-03-22T09:08:20.084Z,3.00
2023-03-22T09:10:53.440Z,3.30
2023-03-22T09:13:26.831Z,2.67
2023-03-22T09:16:02.602Z,2.55
2023-03-22T09:18:37.721Z,2.65
2023-03-22T09:21:18.139Z,3.00
2023-03-22T09:23:56.906Z,3.10
2023-03-22T09:26:42.009Z,2.85
2023-03-22T09:29:13.760Z,2.58
2023-03-22T09:31:43.903Z,2.40
2023-03-22T09:34:20.142Z,2.40
2023-03-22T09:36:52.912Z,2.55
2023-03-22T09:39:27.909Z,2.13
2023-03-22T09:42:03.059Z,1.92
2023-03-22T09:44:36.372Z,2.15
2023-03-22T09:47:14.828Z,2.25
2023-03-22T09:49:53.815Z,2.53
2023-03-22T09:52:23.091Z,2.05
2023-03-22T09:54:53.526Z,2.33
2023-03-22T09:57:29.591Z,2.47
2023-03-22T10:00:15.594Z,2.17
2023-03-22T10:03:04.031Z,2.47
2023-03-22T10:05:40.064Z,2.17
2023-03-22T10:08:38.465Z,2.35
2023-03-22T10:11:20.705Z,2.43
2023-03-22T10:14:00.271Z,2.25
2023-03-22T10:16:35.860Z,2.70
2023-03-22T10:19:11.290Z,2.22
2023-03-22T10:21:40.480Z,2.42
2023-03-22T10:24:14.207Z,2.30
2023-03-22T10:26:45.943Z,2.30
2023-03-22T10:29:24.595Z,2.30
2023-03-22T10:31:59.158Z,2.20
2023-03-22T10:34:33.906Z,2.17
2023-03-22T10:37:06.186Z,1.90
2023-03-22T10:39:39.839Z,2.53
2023-03-22T10:42:13.814Z,2.00
2023-03-22T10:44:49.909Z,2.20
2023-03-22T10:47:27.813Z,2.53
2023-03-22T10:49:59.789Z,2.10
2023-03-22T10:52:39.594Z,1.95
2023-03-22T10:55:15.283Z,2.20
2023-03-22T10:57:49.659Z,1.92
2023-03-22T11:00:19.977Z,2.15
2023-03-22T11:02:55.136Z,2.00
2023-03-22T11:05:28.721Z,2.33
2023-03-22T11:07:58.904Z,1.92
2023-03-22T11:10:32.851Z,1.85
2023-03-22T11:13:21.578Z,2.30
2023-03-22T11:15:59.815Z,2.30
2023-03-22T11:18:32.531Z,2.58
2023-03-22T11:21:03.504Z,2.35
2023-03-22T11:23:34.436Z,2.20
2023-03-22T11:26:10.355Z,2.42
2023-03-22T11:28:44.921Z,2.20
2023-03-22T11:31:19.124Z,2.03
2023-03-22T11:34:04.551Z,2.33
2023-03-22T11:39:17.439Z,2.70
2023-03-22T11:41:47.109Z,2.40
2023-03-22T11:44:19.476Z,2.40
2023-03-22T11:46:56.253Z,1.90
2023-03-22T11:49:36.192Z,2.42
2023-03-22T11:52:13.454Z,2.20
2023-03-22T11:54:44.963Z,2.20
2023-03-22T11:57:17.287Z,1.80
2023-03-22T11:59:56.476Z,2.13
2023-03-22T12:02:28.232Z,2.30
2023-03-22T12:05:06.701Z,2.28
2023-03-22T12:07:38.748Z,2.28
2023-03-22T12:10:14.929Z,2.10
2023-03-22T12:12:50.510Z,2.40
2023-03-22T12:15:24.087Z,2.20
2023-03-22T12:17:58.746Z,2.45
2023-03-22T12:20:39.916Z,2.53
2023-03-22T12:23:17.016Z,2.47
2023-03-22T12:25:52.683Z,3.17
2023-03-22T12:28:30.705Z,2.60
2023-03-22T12:31:01.021Z,2.13
2023-03-22T12:33:33.002Z,2.30
2023-03-22T12:36:05.329Z,1.92
2023-03-22T12:38:42.376Z,2.30
2023-03-22T12:41:13.855Z,2.13
2023-03-22T12:43:50.236Z,1.83
2023-03-22T12:46:23.566Z,1.60
2023-03-22T12:48:57.114Z,1.58
2023-03-22T12:51:26.603Z,1.40
2023-03-22T12:53:58.987Z,1.70
2023-03-22T12:56:30.017Z,1.42
2023-03-22T12:59:04.155Z,1.52
2023-03-22T13:01:36.535Z,1.45
2023-03-22T13:04:32.204Z,1.50
2023-03-22T13:07:16.656Z,1.45
2023-03-22T13:09:47.925Z,1.20
2023-03-22T13:12:34.914Z,1.20
2023-03-22T13:15:41.230Z,1.35
2023-03-22T13:18:33.018Z,1.20
2023-03-22T13:21:16.332Z,1.30
2023-03-22T13:24:00.740Z,1.98
2023-03-22T13:26:36.842Z,1.42
2023-03-22T13:29:14.480Z,1.17
2023-03-22T13:31:51.765Z,1.52
2023-03-22T13:34:22.000Z,1.75
2023-03-22T13:36:55.365Z,1.30
2023-03-22T13:39:28.236Z,1.10
2023-03-22T13:42:11.132Z,1.50
2023-03-22T13:44:43.068Z,1.00
2023-03-22T13:47:35.110Z,1.10
2023-03-22T13:52:49.660Z,1.20
2023-03-22T13:55:41.611Z,1.10
2023-03-22T13:58:14.808Z,1.05
2023-03-22T14:00:53.074Z,1.27
2023-03-22T14:03:30.656Z,1.17
2023-03-22T14:06:07.335Z,1.25
2023-03-22T14:08:39.109Z,0.80
2023-03-22T14:11:30.326Z,1.00
2023-03-22T14:14:04.891Z,1.48
2023-03-22T14:16:41.490Z,0.95
2023-03-22T14:19:21.056Z,1.40
